sensor_id;sensor_type;location;lat;lon;timestamp;pressure;altitude;pressure_sealevel;temperature;humidity
76311;BME280;65120;59.304;18.294;2022-11-15T00:02:00;101859.78;;;8.97;70.90
76311;BME280;65120;59.304;18.294;2022-11-15T00:04:29;101860.63;;;8.96;70.81
76311;BME280;65120;59.304;18.294;2022-11-15T00:06:57;101864.09;;;8.96;71.19
76311;BME280;65120;59.304;18.294;2022-11-15T00:09:24;101855.41;;;8.96;71.03
76311;BME280;65120;59.304;18.294;2022-11-15T00:11:51;101851.94;;;8.95;71.16
76311;BME280;65120;59.304;18.294;2022-11-15T00:14:18;101844.13;;;8.92;71.10
76311;BME280;65120;59.304;18.294;2022-11-15T00:16:45;101839.78;;;8.93;70.75
76311;BME280;65120;59.304;18.294;2022-11-15T00:19:12;101840.63;;;8.89;70.99
76311;BME280;65120;59.304;18.294;2022-11-15T00:21:39;101860.59;;;8.90;70.87
76311;BME280;65120;59.304;18.294;2022-11-15T00:24:08;101858.88;;;8.89;70.67
76311;BME280;65120;59.304;18.294;2022-11-15T00:26:35;101835.38;;;8.80;70.81
76311;BME280;65120;59.304;18.294;2022-11-15T00:29:01;101847.56;;;8.85;70.98
76311;BME280;65120;59.304;18.294;2022-11-15T00:31:28;101843.19;;;8.84;70.84
76311;BME280;65120;59.304;18.294;2022-11-15T00:33:55;101853.66;;;8.86;70.66
76311;BME280;65120;59.304;18.294;2022-11-15T00:36:22;101862.31;;;8.85;70.89
76311;BME280;65120;59.304;18.294;2022-11-15T00:38:49;101863.19;;;8.84;70.78
76311;BME280;65120;59.304;18.294;2022-11-15T00:41:17;101860.56;;;8.84;70.55
76311;BME280;65120;59.304;18.294;2022-11-15T00:43:44;101857.06;;;8.82;70.86
76311;BME280;65120;59.304;18.294;2022-11-15T00:46:11;101856.22;;;8.80;70.86
76311;BME280;65120;59.304;18.294;2022-11-15T00:48:38;101856.19;;;8.78;70.55
76311;BME280;65120;59.304;18.294;2022-11-15T00:51:05;101850.09;;;8.76;70.78
76311;BME280;65120;59.304;18.294;2022-11-15T00:53:32;101848.38;;;8.75;70.68
76311;BME280;65120;59.304;18.294;2022-11-15T00:55:58;101861.38;;;8.75;70.60
76311;BME280;65120;59.304;18.294;2022-11-15T00:58:27;101855.28;;;8.73;70.65
76311;BME280;65120;59.304;18.294;2022-11-15T01:00:54;101859.63;;;8.72;70.70
76311;BME280;65120;59.304;18.294;2022-11-15T01:03:21;101854.41;;;8.69;70.22
76311;BME280;65120;59.304;18.294;2022-11-15T01:05:48;101843.94;;;8.63;70.18
76311;BME280;65120;59.304;18.294;2022-11-15T01:08:15;101857.84;;;8.67;70.25
76311;BME280;65120;59.304;18.294;2022-11-15T01:10:42;101859.56;;;8.65;70.15
76311;BME280;65120;59.304;18.294;2022-11-15T01:13:09;101858.72;;;8.63;69.85
76311;BME280;65120;59.304;18.294;2022-11-15T01:15:40;101853.47;;;8.61;70.21
76311;BME280;65120;59.304;18.294;2022-11-15T01:18:07;101843.03;;;8.58;70.37
76311;BME280;65120;59.304;18.294;2022-11-15T01:20:34;101844.78;;;8.59;70.33
76311;BME280;65120;59.304;18.294;2022-11-15T01:23:01;101839.53;;;8.51;70.58
76311;BME280;65120;59.304;18.294;2022-11-15T01:25:28;101853.44;;;8.55;70.07
76311;BME280;65120;59.304;18.294;2022-11-15T01:27:55;101856.00;;;8.53;70.42
76311;BME280;65120;59.304;18.294;2022-11-15T01:30:22;101862.09;;;8.52;70.35
76311;BME280;65120;59.304;18.294;2022-11-15T01:32:50;101859.50;;;8.51;70.35
76311;BME280;65120;59.304;18.294;2022-11-15T01:35:17;101862.09;;;8.51;69.85
76311;BME280;65120;59.304;18.294;2022-11-15T01:37:44;101864.69;;;8.49;70.31
76311;BME280;65120;59.304;18.294;2022-11-15T01:40:11;101870.75;;;8.48;70.14
76311;BME280;65120;59.304;18.294;2022-11-15T01:42:37;101863.78;;;8.47;70.45
76311;BME280;65120;59.304;18.294;2022-11-15T01:45:05;101841.13;;;8.34;70.34
76311;BME280;65120;59.304;18.294;2022-11-15T01:47:35;101870.75;;;8.45;70.08
76311;BME280;65120;59.304;18.294;2022-11-15T01:50:08;101850.75;;;8.43;70.44
76311;BME280;65120;59.304;18.294;2022-11-15T01:52:38;101857.66;;;8.41;70.45
76311;BME280;65120;59.304;18.294;2022-11-15T01:55:08;101852.44;;;8.39;70.49
76311;BME280;65120;59.304;18.294;2022-11-15T01:57:37;101871.47;;;8.37;70.47
76311;BME280;65120;59.304;18.294;2022-11-15T02:00:05;101876.69;;;8.35;70.09
76311;BME280;65120;59.304;18.294;2022-11-15T02:02:33;101863.66;;;8.33;70.20
76311;BME280;65120;59.304;18.294;2022-11-15T02:05:02;101862.78;;;8.31;69.98
76311;BME280;65120;59.304;18.294;2022-11-15T02:07:33;101872.28;;;8.28;69.83
76311;BME280;65120;59.304;18.294;2022-11-15T02:10:04;101857.56;;;8.28;70.25
76311;BME280;65120;59.304;18.294;2022-11-15T02:12:33;101867.94;;;8.27;69.79
76311;BME280;65120;59.304;18.294;2022-11-15T02:15:02;101868.81;;;8.26;69.79
76311;BME280;65120;59.304;18.294;2022-11-15T02:17:58;101855.72;;;8.18;69.70
76311;BME280;65120;59.304;18.294;2022-11-15T02:20:51;101858.34;;;8.21;69.97
76311;BME280;65120;59.304;18.294;2022-11-15T02:26:50;101864.41;;;8.17;70.00
76311;BME280;65120;59.304;18.294;2022-11-15T02:29:31;101866.97;;;8.14;69.84
76311;BME280;65120;59.304;18.294;2022-11-15T02:32:09;101868.69;;;8.12;69.87
76311;BME280;65120;59.304;18.294;2022-11-15T02:34:48;101851.25;;;8.05;70.02
76311;BME280;65120;59.304;18.294;2022-11-15T02:37:22;101867.78;;;8.08;69.86
76311;BME280;65120;59.304;18.294;2022-11-15T02:39:59;101870.34;;;8.07;69.92
76311;BME280;65120;59.304;18.294;2022-11-15T02:42:32;101857.28;;;8.02;69.86
76311;BME280;65120;59.304;18.294;2022-11-15T02:45:20;101856.44;;;8.05;69.91
76311;BME280;65120;59.304;18.294;2022-11-15T02:47:52;101853.00;;;8.03;70.07
76311;BME280;65120;59.304;18.294;2022-11-15T02:50:21;101862.50;;;8.02;69.98
76311;BME280;65120;59.304;18.294;2022-11-15T02:52:51;101859.91;;;8.01;70.28
76311;BME280;65120;59.304;18.294;2022-11-15T02:55:30;101861.59;;;7.99;69.93
76311;BME280;65120;59.304;18.294;2022-11-15T02:58:09;101872.00;;;7.99;70.11
76311;BME280;65120;59.304;18.294;2022-11-15T03:00:45;101873.72;;;7.97;70.15
76311;BME280;65120;59.304;18.294;2022-11-15T03:03:34;101877.19;;;7.96;69.84
76311;BME280;65120;59.304;18.294;2022-11-15T03:06:11;101872.81;;;7.93;70.04
76311;BME280;65120;59.304;18.294;2022-11-15T03:08:51;101880.63;;;7.92;69.96
76311;BME280;65120;59.304;18.294;2022-11-15T03:11:21;101878.00;;;7.90;69.94
76311;BME280;65120;59.304;18.294;2022-11-15T03:13:53;101873.63;;;7.87;70.18
76311;BME280;65120;59.304;18.294;2022-11-15T03:16:26;101875.38;;;7.85;70.20
76311;BME280;65120;59.304;18.294;2022-11-15T03:18:59;101870.03;;;7.76;70.05
76311;BME280;65120;59.304;18.294;2022-11-15T03:21:30;101877.06;;;7.83;69.92
76311;BME280;65120;59.304;18.294;2022-11-15T03:24:01;101885.69;;;7.79;70.01
76311;BME280;65120;59.304;18.294;2022-11-15T03:26:32;101883.94;;;7.78;70.11
76311;BME280;65120;59.304;18.294;2022-11-15T03:29:03;101871.81;;;7.77;70.13
76311;BME280;65120;59.304;18.294;2022-11-15T03:31:35;101856.06;;;7.65;69.91
76311;BME280;65120;59.304;18.294;2022-11-15T03:34:21;101878.66;;;7.71;69.91
76311;BME280;65120;59.304;18.294;2022-11-15T03:36:51;101870.78;;;7.64;69.85
76311;BME280;65120;59.304;18.294;2022-11-15T03:39:19;101876.03;;;7.68;69.91
76311;BME280;65120;59.304;18.294;2022-11-15T03:41:49;101863.00;;;7.63;70.24
76311;BME280;65120;59.304;18.294;2022-11-15T03:44:26;101871.63;;;7.62;70.08
76311;BME280;65120;59.304;18.294;2022-11-15T03:47:03;101870.75;;;7.61;70.24
76311;BME280;65120;59.304;18.294;2022-11-15T03:49:35;101870.69;;;7.55;70.24
76311;BME280;65120;59.304;18.294;2022-11-15T03:52:04;101836.66;;;7.37;69.99
76311;BME280;65120;59.304;18.294;2022-11-15T03:54:31;101878.50;;;7.57;70.45
76311;BME280;65120;59.304;18.294;2022-11-15T03:56:58;101883.66;;;7.54;70.07
76311;BME280;65120;59.304;18.294;2022-11-15T03:59:25;101882.78;;;7.53;70.03
76311;BME280;65120;59.304;18.294;2022-11-15T04:01:51;101887.13;;;7.53;70.21
76311;BME280;65120;59.304;18.294;2022-11-15T04:04:18;101889.72;;;7.53;70.12
76311;BME280;65120;59.304;18.294;2022-11-15T04:06:47;101877.59;;;7.52;70.35
76311;BME280;65120;59.304;18.294;2022-11-15T04:09:14;101885.41;;;7.52;70.40
76311;BME280;65120;59.304;18.294;2022-11-15T04:11:40;101883.66;;;7.52;69.79
76311;BME280;65120;59.304;18.294;2022-11-15T04:14:08;101874.03;;;7.43;70.44
76311;BME280;65120;59.304;18.294;2022-11-15T04:16:35;101894.88;;;7.51;70.44
76311;BME280;65120;59.304;18.294;2022-11-15T04:19:01;101894.06;;;7.52;70.40
76311;BME280;65120;59.304;18.294;2022-11-15T04:21:47;101901.81;;;7.51;70.13
76311;BME280;65120;59.304;18.294;2022-11-15T04:24:31;101905.25;;;7.48;70.43
76311;BME280;65120;59.304;18.294;2022-11-15T04:26:58;101897.47;;;7.48;70.20
76311;BME280;65120;59.304;18.294;2022-11-15T04:29:25;101902.66;;;7.47;70.33
76311;BME280;65120;59.304;18.294;2022-11-15T04:32:02;101900.03;;;7.43;70.43
76311;BME280;65120;59.304;18.294;2022-11-15T04:34:29;101897.47;;;7.47;70.09
76311;BME280;65120;59.304;18.294;2022-11-15T04:36:57;101902.66;;;7.47;70.20
76311;BME280;65120;59.304;18.294;2022-11-15T04:39:41;101905.25;;;7.47;70.26
76311;BME280;65120;59.304;18.294;2022-11-15T04:42:09;101905.22;;;7.45;70.33
76311;BME280;65120;59.304;18.294;2022-11-15T04:44:36;101899.13;;;7.41;70.41
76311;BME280;65120;59.304;18.294;2022-11-15T04:47:03;101901.72;;;7.41;70.11
76311;BME280;65120;59.304;18.294;2022-11-15T04:49:31;101904.31;;;7.40;70.62
76311;BME280;65120;59.304;18.294;2022-11-15T04:51:59;101865.00;;;7.15;70.63
76311;BME280;65120;59.304;18.294;2022-11-15T04:54:26;101911.22;;;7.39;70.11
76311;BME280;65120;59.304;18.294;2022-11-15T04:56:53;101906.00;;;7.39;70.41
76311;BME280;65120;59.304;18.294;2022-11-15T04:59:20;101899.91;;;7.34;70.28
76311;BME280;65120;59.304;18.294;2022-11-15T05:01:47;101906.00;;;7.38;70.21
76311;BME280;65120;59.304;18.294;2022-11-15T05:04:13;101905.16;;;7.37;70.34
76311;BME280;65120;59.304;18.294;2022-11-15T05:06:46;101905.16;;;7.37;70.17
76311;BME280;65120;59.304;18.294;2022-11-15T05:09:15;101904.25;;;7.35;70.42
76311;BME280;65120;59.304;18.294;2022-11-15T05:11:42;101907.75;;;7.37;70.49
76311;BME280;65120;59.304;18.294;2022-11-15T05:14:09;101901.66;;;7.35;70.38
76311;BME280;65120;59.304;18.294;2022-11-15T05:16:36;101895.53;;;7.33;70.42
76311;BME280;65120;59.304;18.294;2022-11-15T05:19:04;101910.31;;;7.36;70.52
76311;BME280;65120;59.304;18.294;2022-11-15T05:21:31;101905.97;;;7.35;70.66
76311;BME280;65120;59.304;18.294;2022-11-15T05:23:58;101905.94;;;7.33;70.51
76311;BME280;65120;59.304;18.294;2022-11-15T05:26:27;101913.78;;;7.35;70.67
76311;BME280;65120;59.304;18.294;2022-11-15T05:28:55;101909.41;;;7.32;70.69
76311;BME280;65120;59.304;18.294;2022-11-15T05:31:22;101915.44;;;7.31;70.55
76311;BME280;65120;59.304;18.294;2022-11-15T05:33:50;101905.91;;;7.30;70.79
76311;BME280;65120;59.304;18.294;2022-11-15T05:36:21;101912.84;;;7.30;70.62
76311;BME280;65120;59.304;18.294;2022-11-15T05:38:52;101903.22;;;7.24;70.77
76311;BME280;65120;59.304;18.294;2022-11-15T05:41:21;101897.16;;;7.25;70.59
76311;BME280;65120;59.304;18.294;2022-11-15T05:43:52;101912.81;;;7.28;70.89
76311;BME280;65120;59.304;18.294;2022-11-15T05:46:20;101912.81;;;7.28;70.98
76311;BME280;65120;59.304;18.294;2022-11-15T05:48:49;101908.44;;;7.26;70.59
76311;BME280;65120;59.304;18.294;2022-11-15T05:51:17;101919.75;;;7.29;70.81
76311;BME280;65120;59.304;18.294;2022-11-15T05:53:46;101911.94;;;7.28;70.65
76311;BME280;65120;59.304;18.294;2022-11-15T05:56:14;101927.53;;;7.28;70.79
76311;BME280;65120;59.304;18.294;2022-11-15T05:58:41;101931.91;;;7.29;70.67
76311;BME280;65120;59.304;18.294;2022-11-15T06:01:10;101936.19;;;7.27;70.70
76311;BME280;65120;59.304;18.294;2022-11-15T06:03:37;101944.00;;;7.28;70.67
76311;BME280;65120;59.304;18.294;2022-11-15T06:06:04;101944.88;;;7.29;70.57
76311;BME280;65120;59.304;18.294;2022-11-15T06:08:31;101931.78;;;7.21;70.33
76311;BME280;65120;59.304;18.294;2022-11-15T06:11:03;101928.28;;;7.19;70.69
76311;BME280;65120;59.304;18.294;2022-11-15T06:13:30;101944.81;;;7.26;69.99
76311;BME280;65120;59.304;18.294;2022-11-15T06:15:57;101943.09;;;7.25;69.80
76311;BME280;65120;59.304;18.294;2022-11-15T06:18:26;101929.97;;;7.17;69.31
76311;BME280;65120;59.304;18.294;2022-11-15T06:20:53;101934.34;;;7.19;69.49
76311;BME280;65120;59.304;18.294;2022-11-15T06:23:20;101944.78;;;7.22;69.26
76311;BME280;65120;59.304;18.294;2022-11-15T06:25:46;101955.16;;;7.22;69.40
76311;BME280;65120;59.304;18.294;2022-11-15T06:28:13;101952.56;;;7.22;69.32
76311;BME280;65120;59.304;18.294;2022-11-15T06:30:40;101950.00;;;7.24;69.38
76311;BME280;65120;59.304;18.294;2022-11-15T06:33:07;101965.59;;;7.26;69.16
76311;BME280;65120;59.304;18.294;2022-11-15T06:35:36;101977.72;;;7.25;68.20
76311;BME280;65120;59.304;18.294;2022-11-15T06:38:04;101960.41;;;7.24;68.46
76311;BME280;65120;59.304;18.294;2022-11-15T06:40:33;101956.94;;;7.24;68.68
76311;BME280;65120;59.304;18.294;2022-11-15T06:43:01;101962.09;;;7.22;68.32
76311;BME280;65120;59.304;18.294;2022-11-15T06:45:28;101969.91;;;7.22;67.91
76311;BME280;65120;59.304;18.294;2022-11-15T06:47:55;101970.72;;;7.18;68.08
76311;BME280;65120;59.304;18.294;2022-11-15T06:50:23;101983.75;;;7.21;67.57
76311;BME280;65120;59.304;18.294;2022-11-15T06:52:51;101969.84;;;7.19;67.66
76311;BME280;65120;59.304;18.294;2022-11-15T06:55:18;101977.66;;;7.19;67.99
76311;BME280;65120;59.304;18.294;2022-11-15T06:57:48;101988.09;;;7.20;67.65
76311;BME280;65120;59.304;18.294;2022-11-15T07:00:17;101975.09;;;7.22;68.15
76311;BME280;65120;59.304;18.294;2022-11-15T07:02:44;101973.31;;;7.19;67.94
76311;BME280;65120;59.304;18.294;2022-11-15T07:05:12;101978.56;;;7.21;67.65
76311;BME280;65120;59.304;18.294;2022-11-15T07:07:39;101946.22;;;7.02;67.73
76311;BME280;65120;59.304;18.294;2022-11-15T07:10:09;101968.94;;;7.15;67.62
76311;BME280;65120;59.304;18.294;2022-11-15T07:12:36;101980.25;;;7.19;67.60
76311;BME280;65120;59.304;18.294;2022-11-15T07:15:03;101982.00;;;7.20;67.79
76311;BME280;65120;59.304;18.294;2022-11-15T07:17:30;101987.25;;;7.23;67.69
76311;BME280;65120;59.304;18.294;2022-11-15T07:19:57;101980.28;;;7.20;67.83
76311;BME280;65120;59.304;18.294;2022-11-15T07:22:24;101989.00;;;7.24;67.88
76311;BME280;65120;59.304;18.294;2022-11-15T07:24:51;101989.00;;;7.24;67.72
76311;BME280;65120;59.304;18.294;2022-11-15T07:27:19;101986.41;;;7.26;67.45
76311;BME280;65120;59.304;18.294;2022-11-15T07:29:46;101987.31;;;7.26;67.53
76311;BME280;65120;59.304;18.294;2022-11-15T07:32:13;101989.03;;;7.27;67.78
76311;BME280;65120;59.304;18.294;2022-11-15T07:34:40;101984.72;;;7.28;67.79
76311;BME280;65120;59.304;18.294;2022-11-15T07:37:07;101982.16;;;7.29;67.41
76311;BME280;65120;59.304;18.294;2022-11-15T07:39:34;101973.47;;;7.30;67.59
76311;BME280;65120;59.304;18.294;2022-11-15T07:42:01;101983.88;;;7.30;67.20
76311;BME280;65120;59.304;18.294;2022-11-15T07:44:46;101982.16;;;7.29;67.32
76311;BME280;65120;59.304;18.294;2022-11-15T07:47:13;101997.75;;;7.29;67.25
76311;BME280;65120;59.304;18.294;2022-11-15T07:49:40;101986.47;;;7.29;67.32
76311;BME280;65120;59.304;18.294;2022-11-15T07:52:07;101989.06;;;7.29;67.24
76311;BME280;65120;59.304;18.294;2022-11-15T07:54:34;101989.03;;;7.27;67.52
76311;BME280;65120;59.304;18.294;2022-11-15T07:57:01;101973.19;;;7.10;67.18
76311;BME280;65120;59.304;18.294;2022-11-15T07:59:28;102002.06;;;7.30;67.29
76311;BME280;65120;59.304;18.294;2022-11-15T08:01:56;102005.53;;;7.29;67.41
76311;BME280;65120;59.304;18.294;2022-11-15T08:04:23;102009.88;;;7.30;67.32
76311;BME280;65120;59.304;18.294;2022-11-15T08:06:50;102002.94;;;7.29;67.11
76311;BME280;65120;59.304;18.294;2022-11-15T08:09:17;102001.16;;;7.28;67.25
76311;BME280;65120;59.304;18.294;2022-11-15T08:11:44;102009.88;;;7.30;67.27
76311;BME280;65120;59.304;18.294;2022-11-15T08:14:10;102007.22;;;7.27;67.49
76311;BME280;65120;59.304;18.294;2022-11-15T08:16:38;102017.72;;;7.32;67.16
76311;BME280;65120;59.304;18.294;2022-11-15T08:19:06;102018.56;;;7.32;67.51
76311;BME280;65120;59.304;18.294;2022-11-15T08:21:33;102018.56;;;7.32;67.31
76311;BME280;65120;59.304;18.294;2022-11-15T08:24:00;102017.72;;;7.32;67.35
76311;BME280;65120;59.304;18.294;2022-11-15T08:26:27;102006.38;;;7.27;67.75
76311;BME280;65120;59.304;18.294;2022-11-15T08:28:55;102021.19;;;7.32;67.59
76311;BME280;65120;59.304;18.294;2022-11-15T08:31:22;102029.88;;;7.36;67.58
76311;BME280;65120;59.304;18.294;2022-11-15T08:33:49;102027.28;;;7.34;67.68
76311;BME280;65120;59.304;18.294;2022-11-15T08:36:17;102025.56;;;7.36;67.60
76311;BME280;65120;59.304;18.294;2022-11-15T08:38:44;102027.31;;;7.37;67.48
76311;BME280;65120;59.304;18.294;2022-11-15T08:41:19;102024.72;;;7.37;67.44
76311;BME280;65120;59.304;18.294;2022-11-15T08:43:49;102026.41;;;7.37;67.63
76311;BME280;65120;59.304;18.294;2022-11-15T08:46:16;102015.09;;;7.33;67.80
76311;BME280;65120;59.304;18.294;2022-11-15T08:48:43;102031.66;;;7.38;67.37
76311;BME280;65120;59.304;18.294;2022-11-15T08:51:10;102020.41;;;7.39;67.70
76311;BME280;65120;59.304;18.294;2022-11-15T08:53:39;102009.91;;;7.33;67.21
76311;BME280;65120;59.304;18.294;2022-11-15T08:56:07;102017.78;;;7.38;67.03
76311;BME280;65120;59.304;18.294;2022-11-15T08:58:34;102022.16;;;7.40;66.64
76311;BME280;65120;59.304;18.294;2022-11-15T09:01:02;102038.59;;;7.39;66.84
76311;BME280;65120;59.304;18.294;2022-11-15T09:03:30;102041.19;;;7.39;66.79
76311;BME280;65120;59.304;18.294;2022-11-15T09:05:58;102041.19;;;7.39;66.51
76311;BME280;65120;59.304;18.294;2022-11-15T09:08:28;102043.78;;;7.39;66.21
76311;BME280;65120;59.304;18.294;2022-11-15T09:10:57;102049.84;;;7.38;65.89
76311;BME280;65120;59.304;18.294;2022-11-15T09:13:24;102051.59;;;7.39;65.72
76311;BME280;65120;59.304;18.294;2022-11-15T09:15:51;102048.16;;;7.40;64.99
76311;BME280;65120;59.304;18.294;2022-11-15T09:18:18;102053.38;;;7.40;64.86
76311;BME280;65120;59.304;18.294;2022-11-15T09:20:47;102066.34;;;7.40;64.52
76311;BME280;65120;59.304;18.294;2022-11-15T09:23:14;102050.75;;;7.42;64.66
76311;BME280;65120;59.304;18.294;2022-11-15T09:25:41;102047.28;;;7.41;64.10
76311;BME280;65120;59.304;18.294;2022-11-15T09:28:10;102050.81;;;7.43;63.49
76311;BME280;65120;59.304;18.294;2022-11-15T09:30:36;102032.47;;;7.34;63.44
76311;BME280;65120;59.304;18.294;2022-11-15T09:33:07;102048.13;;;7.37;63.45
76311;BME280;65120;59.304;18.294;2022-11-15T09:35:34;102054.22;;;7.42;62.86
76311;BME280;65120;59.304;18.294;2022-11-15T09:38:01;102069.00;;;7.43;62.55
76311;BME280;65120;59.304;18.294;2022-11-15T09:40:30;102060.34;;;7.44;62.14
76311;BME280;65120;59.304;18.294;2022-11-15T09:43:08;102059.47;;;7.44;62.68
76311;BME280;65120;59.304;18.294;2022-11-15T09:45:54;102061.25;;;7.47;62.47
76311;BME280;65120;59.304;18.294;2022-11-15T09:48:51;102053.41;;;7.43;62.49
76311;BME280;65120;59.304;18.294;2022-11-15T09:51:30;102062.16;;;7.49;63.17
76311;BME280;65120;59.304;18.294;2022-11-15T09:54:04;102063.88;;;7.50;62.42
76311;BME280;65120;59.304;18.294;2022-11-15T09:56:35;102075.97;;;7.48;61.62
76311;BME280;65120;59.304;18.294;2022-11-15T10:02:12;102072.59;;;7.52;61.68
76311;BME280;65120;59.304;18.294;2022-11-15T10:04:43;102073.38;;;7.48;62.08
76311;BME280;65120;59.304;18.294;2022-11-15T10:07:14;102068.28;;;7.54;62.07
76311;BME280;65120;59.304;18.294;2022-11-15T10:09:49;102072.63;;;7.55;62.15
76311;BME280;65120;59.304;18.294;2022-11-15T10:12:18;102068.31;;;7.55;61.82
76311;BME280;65120;59.304;18.294;2022-11-15T10:14:46;102048.25;;;7.47;62.35
76311;BME280;65120;59.304;18.294;2022-11-15T10:17:40;102057.94;;;7.58;62.45
76311;BME280;65120;59.304;18.294;2022-11-15T10:20:18;102065.78;;;7.60;62.34
76311;BME280;65120;59.304;18.294;2022-11-15T10:22:49;102056.22;;;7.59;62.61
76311;BME280;65120;59.304;18.294;2022-11-15T10:25:22;102063.22;;;7.64;62.54
76311;BME280;65120;59.304;18.294;2022-11-15T10:27:54;102068.47;;;7.66;62.16
76311;BME280;65120;59.304;18.294;2022-11-15T10:30:23;102067.56;;;7.64;61.58
76311;BME280;65120;59.304;18.294;2022-11-15T10:32:56;102065.88;;;7.66;61.77
76311;BME280;65120;59.304;18.294;2022-11-15T10:35:25;102072.81;;;7.67;61.96
76311;BME280;65120;59.304;18.294;2022-11-15T10:38:04;102077.09;;;7.63;61.74
76311;BME280;65120;59.304;18.294;2022-11-15T10:40:33;102077.13;;;7.66;61.05
76311;BME280;65120;59.304;18.294;2022-11-15T10:43:15;102084.94;;;7.68;60.97
76311;BME280;65120;59.304;18.294;2022-11-15T10:45:42;102068.47;;;7.66;60.93
76311;BME280;65120;59.304;18.294;2022-11-15T10:48:22;102084.94;;;7.68;60.73
76311;BME280;65120;59.304;18.294;2022-11-15T10:50:51;102069.34;;;7.66;61.13
76311;BME280;65120;59.304;18.294;2022-11-15T10:53:23;102088.44;;;7.69;60.83
76311;BME280;65120;59.304;18.294;2022-11-15T10:55:53;102079.69;;;7.65;60.48
76311;BME280;65120;59.304;18.294;2022-11-15T10:58:27;102075.38;;;7.65;60.85
76311;BME280;65120;59.304;18.294;2022-11-15T11:01:08;102078.84;;;7.64;60.70
76311;BME280;65120;59.304;18.294;2022-11-15T11:03:38;102075.38;;;7.65;60.95
76311;BME280;65120;59.304;18.294;2022-11-15T11:06:08;102068.44;;;7.64;60.72
76311;BME280;65120;59.304;18.294;2022-11-15T11:08:36;102064.97;;;7.65;60.92
76311;BME280;65120;59.304;18.294;2022-11-15T11:11:04;102065.00;;;7.67;60.55
76311;BME280;65120;59.304;18.294;2022-11-15T11:13:32;102064.13;;;7.68;60.93
76311;BME280;65120;59.304;18.294;2022-11-15T11:16:15;102072.81;;;7.67;60.51
76311;BME280;65120;59.304;18.294;2022-11-15T11:18:48;102072.84;;;7.69;60.92
76311;BME280;65120;59.304;18.294;2022-11-15T11:21:20;102067.59;;;7.67;60.96
76311;BME280;65120;59.304;18.294;2022-11-15T11:23:53;102059.75;;;7.64;60.92
76311;BME280;65120;59.304;18.294;2022-11-15T11:26:43;102077.16;;;7.68;61.28
76311;BME280;65120;59.304;18.294;2022-11-15T11:29:24;102069.34;;;7.68;61.07
76311;BME280;65120;59.304;18.294;2022-11-15T11:32:00;102074.53;;;7.68;61.12
76311;BME280;65120;59.304;18.294;2022-11-15T11:34:41;102041.41;;;7.53;61.39
76311;BME280;65120;59.304;18.294;2022-11-15T11:37:14;102071.13;;;7.69;61.24
76311;BME280;65120;59.304;18.294;2022-11-15T11:39:50;102076.34;;;7.72;61.00
76311;BME280;65120;59.304;18.294;2022-11-15T11:42:29;102077.19;;;7.70;61.33
76311;BME280;65120;59.304;18.294;2022-11-15T11:45:10;102074.66;;;7.74;61.31
76311;BME280;65120;59.304;18.294;2022-11-15T11:47:47;102072.88;;;7.73;60.54
76311;BME280;65120;59.304;18.294;2022-11-15T11:50:19;102067.66;;;7.70;60.96
76311;BME280;65120;59.304;18.294;2022-11-15T11:52:57;102060.72;;;7.69;61.07
76311;BME280;65120;59.304;18.294;2022-11-15T11:55:28;102063.31;;;7.69;61.31
76311;BME280;65120;59.304;18.294;2022-11-15T11:58:04;102071.13;;;7.69;61.40
76311;BME280;65120;59.304;18.294;2022-11-15T12:00:34;102071.16;;;7.72;61.15
76311;BME280;65120;59.304;18.294;2022-11-15T12:03:09;102073.75;;;7.72;61.40
76311;BME280;65120;59.304;18.294;2022-11-15T12:05:40;102074.66;;;7.74;60.88
76311;BME280;65120;59.304;18.294;2022-11-15T12:08:23;102070.31;;;7.75;60.98
76311;BME280;65120;59.304;18.294;2022-11-15T12:10:59;102060.72;;;7.69;61.37
76311;BME280;65120;59.304;18.294;2022-11-15T12:13:30;102072.88;;;7.73;61.25
76311;BME280;65120;59.304;18.294;2022-11-15T12:16:07;102072.88;;;7.73;61.30
76311;BME280;65120;59.304;18.294;2022-11-15T12:18:37;102074.59;;;7.71;60.95
76311;BME280;65120;59.304;18.294;2022-11-15T12:21:08;102082.34;;;7.66;61.14
76311;BME280;65120;59.304;18.294;2022-11-15T12:23:44;102088.38;;;7.65;61.00
76311;BME280;65120;59.304;18.294;2022-11-15T12:26:16;102079.69;;;7.63;60.92
76311;BME280;65120;59.304;18.294;2022-11-15T12:28:47;102084.00;;;7.60;61.61
76311;BME280;65120;59.304;18.294;2022-11-15T12:31:18;102087.41;;;7.59;61.13
76311;BME280;65120;59.304;18.294;2022-11-15T12:33:48;102084.81;;;7.57;60.89
76311;BME280;65120;59.304;18.294;2022-11-15T12:39:16;102088.28;;;7.58;61.27
76311;BME280;65120;59.304;18.294;2022-11-15T12:41:44;102083.09;;;7.59;60.81
76311;BME280;65120;59.304;18.294;2022-11-15T12:44:56;102078.75;;;7.58;61.37
76311;BME280;65120;59.304;18.294;2022-11-15T12:47:26;102073.44;;;7.51;61.64
76311;BME280;65120;59.304;18.294;2022-11-15T12:49:53;102078.75;;;7.58;61.31
76311;BME280;65120;59.304;18.294;2022-11-15T12:52:20;102077.00;;;7.57;61.64
76311;BME280;65120;59.304;18.294;2022-11-15T12:55:00;102060.47;;;7.54;61.48
76311;BME280;65120;59.304;18.294;2022-11-15T12:57:49;102065.78;;;7.60;61.65
76311;BME280;65120;59.304;18.294;2022-11-15T13:00:43;102066.66;;;7.60;61.55
76311;BME280;65120;59.304;18.294;2022-11-15T13:03:24;102072.69;;;7.59;61.63
76311;BME280;65120;59.304;18.294;2022-11-15T13:06:06;102074.41;;;7.59;61.49
76311;BME280;65120;59.304;18.294;2022-11-15T13:08:38;102036.00;;;7.39;61.40
76311;BME280;65120;59.304;18.294;2022-11-15T13:11:43;102066.63;;;7.57;61.49
76311;BME280;65120;59.304;18.294;2022-11-15T13:14:49;102075.25;;;7.56;61.29
76311;BME280;65120;59.304;18.294;2022-11-15T13:17:26;102074.34;;;7.53;61.59
76311;BME280;65120;59.304;18.294;2022-11-15T13:20:01;102053.44;;;7.48;61.26